Mancos, Colorado
Current Conditions -  °F | °C
As of 6:53 PM on Saturday 20 Dec 2014 (Local Time) from KCEZ Reporting Station
Overcast Overcast  
Wind Chill: 33°   Ceiling: 8000
Heat Index: 33°   Visibility: 10mi
Dew Point: 28°   Wind: 3mph
Humidity: 82%   Direction: 70°ENE
Pressure: 30.12"   Gusts: NA
Location:  37.34°N, 108.29°W
Report Text: KCEZ 210153Z AUTO 07003KT 10SM OVC080 01/M02 A3012 RMK AO2 SLP212 T00061022
Loading
Personal Weather Stations






























Interactive Weather Map New forecast layout! Learn more

10-Day Weather Forecast

Advertisements
Track Severe Weather on mobile